sensor_id;sensor_type;location;lat;lon;timestamp;temperature;humidity
55634;DHT22;41504;53.162;6.788;2022-09-09T00:00:18;15.30;90.00
55634;DHT22;41504;53.162;6.788;2022-09-09T00:02:55;15.30;90.30
55634;DHT22;41504;53.162;6.788;2022-09-09T00:05:33;15.30;90.00
55634;DHT22;41504;53.162;6.788;2022-09-09T00:08:03;15.20;90.00
55634;DHT22;41504;53.162;6.788;2022-09-09T00:10:36;15.10;90.10
55634;DHT22;41504;53.162;6.788;2022-09-09T00:18:50;15.10;90.10
55634;DHT22;41504;53.162;6.788;2022-09-09T00:21:18;15.10;90.10
55634;DHT22;41504;53.162;6.788;2022-09-09T00:23:55;15.10;90.10
55634;DHT22;41504;53.162;6.788;2022-09-09T00:31:37;15.00;90.10
55634;DHT22;41504;53.162;6.788;2022-09-09T00:34:13;15.00;90.10
55634;DHT22;41504;53.162;6.788;2022-09-09T00:36:42;15.00;90.10
55634;DHT22;41504;53.162;6.788;2022-09-09T00:39:37;15.00;90.10
55634;DHT22;41504;53.162;6.788;2022-09-09T00:42:24;15.00;90.00
55634;DHT22;41504;53.162;6.788;2022-09-09T00:48:06;15.00;90.00
55634;DHT22;41504;53.162;6.788;2022-09-09T00:50:51;14.90;90.10
55634;DHT22;41504;53.162;6.788;2022-09-09T00:54:02;14.90;90.10
55634;DHT22;41504;53.162;6.788;2022-09-09T00:59:48;14.90;90.10
55634;DHT22;41504;53.162;6.788;2022-09-09T01:02:27;14.90;90.10
55634;DHT22;41504;53.162;6.788;2022-09-09T01:04:54;14.80;90.10
55634;DHT22;41504;53.162;6.788;2022-09-09T01:07:23;14.80;90.20
55634;DHT22;41504;53.162;6.788;2022-09-09T01:10:00;14.80;90.10
55634;DHT22;41504;53.162;6.788;2022-09-09T01:18:05;14.80;90.10
55634;DHT22;41504;53.162;6.788;2022-09-09T01:20:44;14.80;90.00
55634;DHT22;41504;53.162;6.788;2022-09-09T01:23:41;14.80;90.10
55634;DHT22;41504;53.162;6.788;2022-09-09T01:26:28;14.80;90.00
55634;DHT22;41504;53.162;6.788;2022-09-09T01:28:55;14.80;90.10
55634;DHT22;41504;53.162;6.788;2022-09-09T01:31:27;14.70;90.10
55634;DHT22;41504;53.162;6.788;2022-09-09T01:33:54;14.70;90.00
55634;DHT22;41504;53.162;6.788;2022-09-09T01:36:21;14.70;90.00
55634;DHT22;41504;53.162;6.788;2022-09-09T01:38:50;14.70;90.10
55634;DHT22;41504;53.162;6.788;2022-09-09T01:41:15;14.70;90.10
55634;DHT22;41504;53.162;6.788;2022-09-09T01:43:41;14.60;90.00
55634;DHT22;41504;53.162;6.788;2022-09-09T01:46:07;14.60;90.00
55634;DHT22;41504;53.162;6.788;2022-09-09T01:48:33;14.60;90.10
55634;DHT22;41504;53.162;6.788;2022-09-09T01:50:59;14.60;90.00
55634;DHT22;41504;53.162;6.788;2022-09-09T01:53:25;14.60;90.10
55634;DHT22;41504;53.162;6.788;2022-09-09T02:01:39;14.50;90.10
55634;DHT22;41504;53.162;6.788;2022-09-09T02:06:56;14.50;90.00
55634;DHT22;41504;53.162;6.788;2022-09-09T02:09:26;14.40;90.10
55634;DHT22;41504;53.162;6.788;2022-09-09T02:12:18;14.40;90.10
55634;DHT22;41504;53.162;6.788;2022-09-09T02:14:55;14.40;90.00
55634;DHT22;41504;53.162;6.788;2022-09-09T02:17:31;14.30;90.10
55634;DHT22;41504;53.162;6.788;2022-09-09T02:20:08;14.30;90.10
55634;DHT22;41504;53.162;6.788;2022-09-09T02:22:37;14.30;90.10
55634;DHT22;41504;53.162;6.788;2022-09-09T02:25:07;14.30;90.20
55634;DHT22;41504;53.162;6.788;2022-09-09T02:27:34;14.30;90.20
55634;DHT22;41504;53.162;6.788;2022-09-09T02:30:02;14.30;90.20
55634;DHT22;41504;53.162;6.788;2022-09-09T02:32:29;14.30;90.20
55634;DHT22;41504;53.162;6.788;2022-09-09T02:35:05;14.20;90.20
55634;DHT22;41504;53.162;6.788;2022-09-09T02:37:36;14.20;90.20
55634;DHT22;41504;53.162;6.788;2022-09-09T02:40:04;14.20;90.20
55634;DHT22;41504;53.162;6.788;2022-09-09T02:42:31;14.20;90.30
55634;DHT22;41504;53.162;6.788;2022-09-09T02:44:57;14.30;90.20
55634;DHT22;41504;53.162;6.788;2022-09-09T02:47:35;14.30;90.20
55634;DHT22;41504;53.162;6.788;2022-09-09T02:50:33;14.30;90.50
55634;DHT22;41504;53.162;6.788;2022-09-09T02:53:19;14.40;90.20
55634;DHT22;41504;53.162;6.788;2022-09-09T02:55:47;14.40;90.20
55634;DHT22;41504;53.162;6.788;2022-09-09T02:58:17;14.40;90.20
55634;DHT22;41504;53.162;6.788;2022-09-09T03:00:48;14.40;90.20
55634;DHT22;41504;53.162;6.788;2022-09-09T03:03:15;14.40;90.20
55634;DHT22;41504;53.162;6.788;2022-09-09T03:05:42;14.50;90.30
55634;DHT22;41504;53.162;6.788;2022-09-09T03:08:08;14.50;90.20
55634;DHT22;41504;53.162;6.788;2022-09-09T03:10:34;14.50;90.30
55634;DHT22;41504;53.162;6.788;2022-09-09T03:13:00;14.50;90.30
55634;DHT22;41504;53.162;6.788;2022-09-09T03:15:26;14.50;90.30
55634;DHT22;41504;53.162;6.788;2022-09-09T03:17:55;14.60;90.30
55634;DHT22;41504;53.162;6.788;2022-09-09T03:20:23;14.60;90.30
55634;DHT22;41504;53.162;6.788;2022-09-09T03:22:50;14.60;90.40
55634;DHT22;41504;53.162;6.788;2022-09-09T03:25:16;14.60;90.40
55634;DHT22;41504;53.162;6.788;2022-09-09T03:27:41;14.60;90.40
55634;DHT22;41504;53.162;6.788;2022-09-09T03:30:07;14.60;90.40
55634;DHT22;41504;53.162;6.788;2022-09-09T03:32:33;14.70;90.50
55634;DHT22;41504;53.162;6.788;2022-09-09T03:34:59;14.70;90.50
55634;DHT22;41504;53.162;6.788;2022-09-09T03:37:25;14.70;90.50
55634;DHT22;41504;53.162;6.788;2022-09-09T03:39:50;14.70;90.60
55634;DHT22;41504;53.162;6.788;2022-09-09T03:42:16;14.70;90.60
55634;DHT22;41504;53.162;6.788;2022-09-09T03:44:48;14.70;90.60
55634;DHT22;41504;53.162;6.788;2022-09-09T03:47:20;14.70;90.70
55634;DHT22;41504;53.162;6.788;2022-09-09T03:49:47;14.70;90.70
55634;DHT22;41504;53.162;6.788;2022-09-09T03:52:14;14.80;90.70
55634;DHT22;41504;53.162;6.788;2022-09-09T03:54:40;14.80;90.80
55634;DHT22;41504;53.162;6.788;2022-09-09T03:57:06;14.80;90.80
55634;DHT22;41504;53.162;6.788;2022-09-09T03:59:32;14.80;90.80
55634;DHT22;41504;53.162;6.788;2022-09-09T04:01:58;14.80;90.80
55634;DHT22;41504;53.162;6.788;2022-09-09T04:04:24;14.80;90.80
55634;DHT22;41504;53.162;6.788;2022-09-09T04:06:52;14.80;90.90
55634;DHT22;41504;53.162;6.788;2022-09-09T04:09:17;14.80;90.90
55634;DHT22;41504;53.162;6.788;2022-09-09T04:11:43;14.80;91.00
55634;DHT22;41504;53.162;6.788;2022-09-09T04:14:09;14.80;91.00
55634;DHT22;41504;53.162;6.788;2022-09-09T04:16:35;14.80;91.00
55634;DHT22;41504;53.162;6.788;2022-09-09T04:19:03;14.80;91.10
55634;DHT22;41504;53.162;6.788;2022-09-09T04:21:30;14.80;91.10
55634;DHT22;41504;53.162;6.788;2022-09-09T04:23:56;14.80;91.20
55634;DHT22;41504;53.162;6.788;2022-09-09T04:26:22;14.80;91.20
55634;DHT22;41504;53.162;6.788;2022-09-09T04:28:48;14.80;91.50
55634;DHT22;41504;53.162;6.788;2022-09-09T04:31:21;14.80;91.30
55634;DHT22;41504;53.162;6.788;2022-09-09T04:33:49;14.80;91.30
55634;DHT22;41504;53.162;6.788;2022-09-09T04:36:16;14.80;91.30
55634;DHT22;41504;53.162;6.788;2022-09-09T04:38:41;14.80;91.30
55634;DHT22;41504;53.162;6.788;2022-09-09T04:41:08;14.80;91.30
55634;DHT22;41504;53.162;6.788;2022-09-09T04:43:36;14.80;91.30
55634;DHT22;41504;53.162;6.788;2022-09-09T04:46:03;14.80;91.30
55634;DHT22;41504;53.162;6.788;2022-09-09T04:48:29;14.80;91.30
55634;DHT22;41504;53.162;6.788;2022-09-09T04:51:00;14.80;91.30
55634;DHT22;41504;53.162;6.788;2022-09-09T04:53:26;14.80;91.30
55634;DHT22;41504;53.162;6.788;2022-09-09T04:56:00;14.80;91.30
55634;DHT22;41504;53.162;6.788;2022-09-09T18:40:38;18.40;83.50
55634;DHT22;41504;53.162;6.788;2022-09-09T18:43:04;17.50;81.90
55634;DHT22;41504;53.162;6.788;2022-09-09T18:45:30;17.50;82.70
55634;DHT22;41504;53.162;6.788;2022-09-09T18:47:59;17.50;83.70
55634;DHT22;41504;53.162;6.788;2022-09-09T18:50:25;17.50;84.40
55634;DHT22;41504;53.162;6.788;2022-09-09T18:52:51;17.50;84.80
55634;DHT22;41504;53.162;6.788;2022-09-09T18:55:17;17.50;85.20
55634;DHT22;41504;53.162;6.788;2022-09-09T18:57:43;17.50;85.70
55634;DHT22;41504;53.162;6.788;2022-09-09T19:00:09;17.60;86.20
55634;DHT22;41504;53.162;6.788;2022-09-09T19:02:35;17.60;86.30
55634;DHT22;41504;53.162;6.788;2022-09-09T19:05:03;17.50;86.30
55634;DHT22;41504;53.162;6.788;2022-09-09T19:07:29;17.50;86.40
55634;DHT22;41504;53.162;6.788;2022-09-09T19:09:55;17.50;86.50
55634;DHT22;41504;53.162;6.788;2022-09-09T19:12:20;17.60;86.70
55634;DHT22;41504;53.162;6.788;2022-09-09T19:14:46;17.50;86.60
55634;DHT22;41504;53.162;6.788;2022-09-09T19:17:12;17.50;86.50
55634;DHT22;41504;53.162;6.788;2022-09-09T19:19:37;17.50;86.60
55634;DHT22;41504;53.162;6.788;2022-09-09T19:22:07;17.50;86.90
55634;DHT22;41504;53.162;6.788;2022-09-09T19:24:36;17.50;87.20
55634;DHT22;41504;53.162;6.788;2022-09-09T19:27:04;17.40;87.40
55634;DHT22;41504;53.162;6.788;2022-09-09T19:29:33;17.40;88.20
55634;DHT22;41504;53.162;6.788;2022-09-09T19:31:59;17.40;87.70
55634;DHT22;41504;53.162;6.788;2022-09-09T19:34:27;17.40;87.80
55634;DHT22;41504;53.162;6.788;2022-09-09T19:36:53;17.40;87.90
55634;DHT22;41504;53.162;6.788;2022-09-09T19:39:19;17.40;87.90
55634;DHT22;41504;53.162;6.788;2022-09-09T19:41:49;17.40;88.00
55634;DHT22;41504;53.162;6.788;2022-09-09T19:44:16;17.40;88.10
55634;DHT22;41504;53.162;6.788;2022-09-09T19:46:43;17.40;88.10
55634;DHT22;41504;53.162;6.788;2022-09-09T19:49:11;17.40;88.00
55634;DHT22;41504;53.162;6.788;2022-09-09T19:51:36;17.40;88.00
55634;DHT22;41504;53.162;6.788;2022-09-09T19:54:08;17.40;87.90
55634;DHT22;41504;53.162;6.788;2022-09-09T19:56:36;17.40;87.90
55634;DHT22;41504;53.162;6.788;2022-09-09T19:59:03;17.40;88.00
55634;DHT22;41504;53.162;6.788;2022-09-09T20:01:35;17.40;88.10
55634;DHT22;41504;53.162;6.788;2022-09-09T20:04:02;17.40;88.20
55634;DHT22;41504;53.162;6.788;2022-09-09T20:06:30;17.40;88.10
55634;DHT22;41504;53.162;6.788;2022-09-09T20:08:57;17.40;88.10
55634;DHT22;41504;53.162;6.788;2022-09-09T20:11:25;17.40;88.20
55634;DHT22;41504;53.162;6.788;2022-09-09T20:13:51;17.40;88.20
55634;DHT22;41504;53.162;6.788;2022-09-09T20:16:25;17.40;88.20
55634;DHT22;41504;53.162;6.788;2022-09-09T20:18:53;17.40;88.10
55634;DHT22;41504;53.162;6.788;2022-09-09T20:21:23;17.40;88.20
55634;DHT22;41504;53.162;6.788;2022-09-09T20:23:50;17.40;88.20
55634;DHT22;41504;53.162;6.788;2022-09-09T20:26:19;17.40;88.10
55634;DHT22;41504;53.162;6.788;2022-09-09T20:28:49;17.40;88.70
55634;DHT22;41504;53.162;6.788;2022-09-09T20:31:18;17.40;88.10
55634;DHT22;41504;53.162;6.788;2022-09-09T20:33:44;17.30;88.20
55634;DHT22;41504;53.162;6.788;2022-09-09T20:36:19;17.30;88.30
55634;DHT22;41504;53.162;6.788;2022-09-09T20:38:50;17.20;88.30
55634;DHT22;41504;53.162;6.788;2022-09-09T20:41:19;17.20;88.50
55634;DHT22;41504;53.162;6.788;2022-09-09T20:43:51;17.20;88.70
55634;DHT22;41504;53.162;6.788;2022-09-09T20:46:19;17.20;88.70
55634;DHT22;41504;53.162;6.788;2022-09-09T20:48:46;17.10;88.70
55634;DHT22;41504;53.162;6.788;2022-09-09T20:51:13;17.10;88.80
55634;DHT22;41504;53.162;6.788;2022-09-09T20:53:40;17.00;88.80
55634;DHT22;41504;53.162;6.788;2022-09-09T20:56:09;17.00;88.90
55634;DHT22;41504;53.162;6.788;2022-09-09T20:58:35;17.00;88.80
55634;DHT22;41504;53.162;6.788;2022-09-09T21:01:02;17.00;89.40
55634;DHT22;41504;53.162;6.788;2022-09-09T21:03:30;17.00;88.90
55634;DHT22;41504;53.162;6.788;2022-09-09T21:05:59;17.00;89.00
55634;DHT22;41504;53.162;6.788;2022-09-09T21:08:28;17.00;89.00
55634;DHT22;41504;53.162;6.788;2022-09-09T21:10:55;16.90;88.90
55634;DHT22;41504;53.162;6.788;2022-09-09T21:13:21;16.90;88.90
55634;DHT22;41504;53.162;6.788;2022-09-09T21:15:47;16.90;89.00
55634;DHT22;41504;53.162;6.788;2022-09-09T21:18:14;16.90;89.00
55634;DHT22;41504;53.162;6.788;2022-09-09T21:20:39;16.80;88.90
55634;DHT22;41504;53.162;6.788;2022-09-09T21:23:08;16.80;88.90
55634;DHT22;41504;53.162;6.788;2022-09-09T21:25:34;16.90;89.00
55634;DHT22;41504;53.162;6.788;2022-09-09T21:28:01;16.90;88.90
55634;DHT22;41504;53.162;6.788;2022-09-09T21:30:28;16.90;88.90
55634;DHT22;41504;53.162;6.788;2022-09-09T21:32:53;16.80;88.90
55634;DHT22;41504;53.162;6.788;2022-09-09T21:35:19;16.80;88.90
55634;DHT22;41504;53.162;6.788;2022-09-09T21:37:46;16.80;89.00
55634;DHT22;41504;53.162;6.788;2022-09-09T21:40:11;16.80;89.00
55634;DHT22;41504;53.162;6.788;2022-09-09T21:42:37;16.80;89.00
55634;DHT22;41504;53.162;6.788;2022-09-09T21:45:04;16.80;89.00
55634;DHT22;41504;53.162;6.788;2022-09-09T21:47:30;16.70;88.90
55634;DHT22;41504;53.162;6.788;2022-09-09T21:49:56;16.70;89.10
55634;DHT22;41504;53.162;6.788;2022-09-09T21:52:22;16.60;89.10
55634;DHT22;41504;53.162;6.788;2022-09-09T21:54:48;16.60;89.10
55634;DHT22;41504;53.162;6.788;2022-09-09T21:57:14;16.60;89.10
55634;DHT22;41504;53.162;6.788;2022-09-09T21:59:40;16.60;89.00
55634;DHT22;41504;53.162;6.788;2022-09-09T22:02:07;16.60;89.00
55634;DHT22;41504;53.162;6.788;2022-09-09T22:04:35;16.50;89.00
55634;DHT22;41504;53.162;6.788;2022-09-09T22:07:01;16.50;89.60
55634;DHT22;41504;53.162;6.788;2022-09-09T22:09:28;16.50;89.10
55634;DHT22;41504;53.162;6.788;2022-09-09T22:11:54;16.50;89.10
55634;DHT22;41504;53.162;6.788;2022-09-09T22:14:19;16.50;89.20
55634;DHT22;41504;53.162;6.788;2022-09-09T22:16:45;16.50;89.20
55634;DHT22;41504;53.162;6.788;2022-09-09T22:19:11;16.40;89.10
55634;DHT22;41504;53.162;6.788;2022-09-09T22:21:37;16.40;89.10
55634;DHT22;41504;53.162;6.788;2022-09-09T22:24:04;16.40;89.10
55634;DHT22;41504;53.162;6.788;2022-09-09T22:26:32;16.40;89.00
55634;DHT22;41504;53.162;6.788;2022-09-09T22:28:59;16.30;89.00
55634;DHT22;41504;53.162;6.788;2022-09-09T22:31:26;16.30;89.00
55634;DHT22;41504;53.162;6.788;2022-09-09T22:33:52;16.30;89.00
55634;DHT22;41504;53.162;6.788;2022-09-09T22:36:19;16.30;89.00
55634;DHT22;41504;53.162;6.788;2022-09-09T22:38:49;16.30;89.00
55634;DHT22;41504;53.162;6.788;2022-09-09T22:41:15;16.30;89.00
55634;DHT22;41504;53.162;6.788;2022-09-09T22:43:42;16.30;89.20
55634;DHT22;41504;53.162;6.788;2022-09-09T22:46:08;16.20;89.10
55634;DHT22;41504;53.162;6.788;2022-09-09T22:48:35;16.20;89.10
55634;DHT22;41504;53.162;6.788;2022-09-09T22:51:03;16.20;89.10
55634;DHT22;41504;53.162;6.788;2022-09-09T22:53:29;16.20;89.00
55634;DHT22;41504;53.162;6.788;2022-09-09T22:56:04;16.20;89.00
55634;DHT22;41504;53.162;6.788;2022-09-09T22:58:32;16.10;89.00
55634;DHT22;41504;53.162;6.788;2022-09-09T23:00:59;16.10;89.10
55634;DHT22;41504;53.162;6.788;2022-09-09T23:03:25;16.10;89.10
55634;DHT22;41504;53.162;6.788;2022-09-09T23:05:56;16.00;89.10
55634;DHT22;41504;53.162;6.788;2022-09-09T23:08:30;16.10;89.20
55634;DHT22;41504;53.162;6.788;2022-09-09T23:11:08;16.00;89.10
55634;DHT22;41504;53.162;6.788;2022-09-09T23:13:36;16.00;89.20
55634;DHT22;41504;53.162;6.788;2022-09-09T23:16:17;16.00;89.20
55634;DHT22;41504;53.162;6.788;2022-09-09T23:18:44;16.00;89.20
55634;DHT22;41504;53.162;6.788;2022-09-09T23:21:11;15.90;89.30
55634;DHT22;41504;53.162;6.788;2022-09-09T23:23:38;16.00;89.30
55634;DHT22;41504;53.162;6.788;2022-09-09T23:26:09;15.90;89.30
55634;DHT22;41504;53.162;6.788;2022-09-09T23:28:36;15.90;89.30
55634;DHT22;41504;53.162;6.788;2022-09-09T23:31:15;15.90;89.30
55634;DHT22;41504;53.162;6.788;2022-09-09T23:33:42;15.90;89.30
55634;DHT22;41504;53.162;6.788;2022-09-09T23:36:13;15.90;89.30
55634;DHT22;41504;53.162;6.788;2022-09-09T23:38:39;15.90;89.30
55634;DHT22;41504;53.162;6.788;2022-09-09T23:41:08;15.90;89.30
55634;DHT22;41504;53.162;6.788;2022-09-09T23:43:34;15.80;89.30
55634;DHT22;41504;53.162;6.788;2022-09-09T23:46:11;15.80;89.30
55634;DHT22;41504;53.162;6.788;2022-09-09T23:48:38;15.80;89.30
55634;DHT22;41504;53.162;6.788;2022-09-09T23:51:09;15.70;89.40
55634;DHT22;41504;53.162;6.788;2022-09-09T23:53:36;15.70;89.40
55634;DHT22;41504;53.162;6.788;2022-09-09T23:56:03;15.70;89.40
55634;DHT22;41504;53.162;6.788;2022-09-09T23:58:32;15.70;89.40
